sensor_id;sensor_type;location;lat;lon;timestamp;temperature;humidity
12015;DHT22;6066;48.138;16.402;2022-07-18T00:02:18;16.70;97.50
12015;DHT22;6066;48.138;16.402;2022-07-18T00:04:45;16.70;96.80
12015;DHT22;6066;48.138;16.402;2022-07-18T00:07:12;16.60;97.30
12015;DHT22;6066;48.138;16.402;2022-07-18T00:09:39;16.60;98.00
12015;DHT22;6066;48.138;16.402;2022-07-18T00:12:08;16.60;98.40
12015;DHT22;6066;48.138;16.402;2022-07-18T00:14:35;16.50;98.60
12015;DHT22;6066;48.138;16.402;2022-07-18T00:17:02;16.50;98.10
12015;DHT22;6066;48.138;16.402;2022-07-18T00:19:29;16.40;98.60
12015;DHT22;6066;48.138;16.402;2022-07-18T00:21:56;16.30;98.50
12015;DHT22;6066;48.138;16.402;2022-07-18T00:24:22;16.30;98.30
12015;DHT22;6066;48.138;16.402;2022-07-18T00:26:49;16.20;98.70
12015;DHT22;6066;48.138;16.402;2022-07-18T00:29:17;16.20;99.20
12015;DHT22;6066;48.138;16.402;2022-07-18T00:31:44;16.20;99.30
12015;DHT22;6066;48.138;16.402;2022-07-18T00:34:10;16.20;99.90
12015;DHT22;6066;48.138;16.402;2022-07-18T00:36:37;16.10;99.90
12015;DHT22;6066;48.138;16.402;2022-07-18T00:39:04;16.10;99.90
12015;DHT22;6066;48.138;16.402;2022-07-18T00:41:30;16.00;99.90
12015;DHT22;6066;48.138;16.402;2022-07-18T00:43:57;16.00;99.90
12015;DHT22;6066;48.138;16.402;2022-07-18T00:46:26;16.00;99.90
12015;DHT22;6066;48.138;16.402;2022-07-18T00:48:53;15.90;99.90
12015;DHT22;6066;48.138;16.402;2022-07-18T00:51:20;15.90;99.90
12015;DHT22;6066;48.138;16.402;2022-07-18T00:53:47;15.90;99.90
12015;DHT22;6066;48.138;16.402;2022-07-18T00:56:14;15.90;99.90
12015;DHT22;6066;48.138;16.402;2022-07-18T00:58:43;15.90;99.90
12015;DHT22;6066;48.138;16.402;2022-07-18T01:01:09;15.90;99.90
12015;DHT22;6066;48.138;16.402;2022-07-18T01:03:55;15.90;99.90
12015;DHT22;6066;48.138;16.402;2022-07-18T01:06:22;15.80;99.90
12015;DHT22;6066;48.138;16.402;2022-07-18T01:08:48;15.80;99.90
12015;DHT22;6066;48.138;16.402;2022-07-18T01:11:15;15.70;99.90
12015;DHT22;6066;48.138;16.402;2022-07-18T01:13:42;15.70;99.90
12015;DHT22;6066;48.138;16.402;2022-07-18T01:16:09;15.60;99.90
12015;DHT22;6066;48.138;16.402;2022-07-18T01:18:35;15.60;99.90
12015;DHT22;6066;48.138;16.402;2022-07-18T01:21:04;15.60;99.90
12015;DHT22;6066;48.138;16.402;2022-07-18T01:23:30;15.70;99.90
12015;DHT22;6066;48.138;16.402;2022-07-18T01:25:57;15.80;99.90
12015;DHT22;6066;48.138;16.402;2022-07-18T01:28:24;15.80;99.90
12015;DHT22;6066;48.138;16.402;2022-07-18T01:30:51;15.80;99.90
12015;DHT22;6066;48.138;16.402;2022-07-18T01:33:17;15.80;99.90
12015;DHT22;6066;48.138;16.402;2022-07-18T01:35:44;15.70;99.90
12015;DHT22;6066;48.138;16.402;2022-07-18T01:38:12;15.70;99.90
12015;DHT22;6066;48.138;16.402;2022-07-18T01:40:39;15.60;99.90
12015;DHT22;6066;48.138;16.402;2022-07-18T01:43:06;15.60;99.90
12015;DHT22;6066;48.138;16.402;2022-07-18T01:45:32;15.60;99.90
12015;DHT22;6066;48.138;16.402;2022-07-18T01:47:59;15.60;99.90
12015;DHT22;6066;48.138;16.402;2022-07-18T01:50:26;15.50;99.90
12015;DHT22;6066;48.138;16.402;2022-07-18T01:52:53;15.50;99.90
12015;DHT22;6066;48.138;16.402;2022-07-18T01:55:21;15.50;99.90
12015;DHT22;6066;48.138;16.402;2022-07-18T01:57:47;15.50;99.90
12015;DHT22;6066;48.138;16.402;2022-07-18T02:00:14;15.50;99.90
12015;DHT22;6066;48.138;16.402;2022-07-18T02:02:41;15.50;99.90
12015;DHT22;6066;48.138;16.402;2022-07-18T02:05:08;15.50;99.90
12015;DHT22;6066;48.138;16.402;2022-07-18T02:07:35;15.40;99.90
12015;DHT22;6066;48.138;16.402;2022-07-18T02:10:03;15.50;99.90
12015;DHT22;6066;48.138;16.402;2022-07-18T02:12:32;15.40;99.90
12015;DHT22;6066;48.138;16.402;2022-07-18T02:14:58;15.40;99.90
12015;DHT22;6066;48.138;16.402;2022-07-18T02:17:25;15.40;99.90
12015;DHT22;6066;48.138;16.402;2022-07-18T02:19:52;15.30;99.90
12015;DHT22;6066;48.138;16.402;2022-07-18T02:22:18;15.30;99.90
12015;DHT22;6066;48.138;16.402;2022-07-18T02:24:45;15.20;99.90
12015;DHT22;6066;48.138;16.402;2022-07-18T02:27:12;15.20;99.90
12015;DHT22;6066;48.138;16.402;2022-07-18T02:29:40;15.10;99.90
12015;DHT22;6066;48.138;16.402;2022-07-18T02:32:06;15.10;99.90
12015;DHT22;6066;48.138;16.402;2022-07-18T02:34:33;15.00;99.90
12015;DHT22;6066;48.138;16.402;2022-07-18T02:37:00;15.00;99.90
12015;DHT22;6066;48.138;16.402;2022-07-18T02:39:27;14.90;99.90
12015;DHT22;6066;48.138;16.402;2022-07-18T02:41:54;14.90;99.90
12015;DHT22;6066;48.138;16.402;2022-07-18T02:44:21;14.90;99.90
12015;DHT22;6066;48.138;16.402;2022-07-18T02:46:49;14.90;99.90
12015;DHT22;6066;48.138;16.402;2022-07-18T02:49:16;14.80;99.90
12015;DHT22;6066;48.138;16.402;2022-07-18T02:51:53;14.80;99.90
12015;DHT22;6066;48.138;16.402;2022-07-18T02:54:20;14.80;99.90
12015;DHT22;6066;48.138;16.402;2022-07-18T02:56:47;14.80;99.90
12015;DHT22;6066;48.138;16.402;2022-07-18T02:59:14;14.80;99.90
12015;DHT22;6066;48.138;16.402;2022-07-18T03:01:40;14.70;99.90
12015;DHT22;6066;48.138;16.402;2022-07-18T03:04:08;14.70;99.90
12015;DHT22;6066;48.138;16.402;2022-07-18T03:06:35;14.70;99.90
12015;DHT22;6066;48.138;16.402;2022-07-18T03:09:04;14.70;99.90
12015;DHT22;6066;48.138;16.402;2022-07-18T03:11:31;14.60;99.90
12015;DHT22;6066;48.138;16.402;2022-07-18T03:13:58;14.60;99.90
12015;DHT22;6066;48.138;16.402;2022-07-18T03:16:25;14.50;99.90
12015;DHT22;6066;48.138;16.402;2022-07-18T03:18:51;14.50;99.90
12015;DHT22;6066;48.138;16.402;2022-07-18T03:21:20;14.50;99.90
12015;DHT22;6066;48.138;16.402;2022-07-18T03:23:47;14.50;99.90
12015;DHT22;6066;48.138;16.402;2022-07-18T03:26:13;14.50;99.90
12015;DHT22;6066;48.138;16.402;2022-07-18T03:28:40;14.50;99.90
12015;DHT22;6066;48.138;16.402;2022-07-18T03:31:07;14.50;99.90
12015;DHT22;6066;48.138;16.402;2022-07-18T03:33:34;14.50;99.90
12015;DHT22;6066;48.138;16.402;2022-07-18T03:36:00;14.50;99.90
12015;DHT22;6066;48.138;16.402;2022-07-18T03:38:28;14.60;99.90
12015;DHT22;6066;48.138;16.402;2022-07-18T03:40:55;14.70;99.90
12015;DHT22;6066;48.138;16.402;2022-07-18T03:43:22;14.70;99.90
12015;DHT22;6066;48.138;16.402;2022-07-18T03:45:48;14.70;99.90
12015;DHT22;6066;48.138;16.402;2022-07-18T03:48:15;14.60;99.90
12015;DHT22;6066;48.138;16.402;2022-07-18T03:50:42;14.60;99.90
12015;DHT22;6066;48.138;16.402;2022-07-18T03:53:08;14.50;99.90
12015;DHT22;6066;48.138;16.402;2022-07-18T03:55:37;14.50;99.90
12015;DHT22;6066;48.138;16.402;2022-07-18T03:58:03;14.50;99.90
12015;DHT22;6066;48.138;16.402;2022-07-18T04:00:30;14.50;99.90
12015;DHT22;6066;48.138;16.402;2022-07-18T04:02:57;14.50;99.90
12015;DHT22;6066;48.138;16.402;2022-07-18T04:05:23;14.60;99.90
12015;DHT22;6066;48.138;16.402;2022-07-18T04:07:50;14.70;99.90
12015;DHT22;6066;48.138;16.402;2022-07-18T04:10:17;14.80;99.90
12015;DHT22;6066;48.138;16.402;2022-07-18T04:12:45;14.90;99.90
12015;DHT22;6066;48.138;16.402;2022-07-18T04:15:11;15.00;99.90
12015;DHT22;6066;48.138;16.402;2022-07-18T04:17:38;15.00;99.90
12015;DHT22;6066;48.138;16.402;2022-07-18T04:20:05;15.00;99.90
12015;DHT22;6066;48.138;16.402;2022-07-18T04:22:36;15.10;99.90
12015;DHT22;6066;48.138;16.402;2022-07-18T04:25:09;15.10;99.90
12015;DHT22;6066;48.138;16.402;2022-07-18T04:27:36;15.20;99.90
12015;DHT22;6066;48.138;16.402;2022-07-18T04:30:04;15.30;99.90
12015;DHT22;6066;48.138;16.402;2022-07-18T04:32:31;15.40;99.90
12015;DHT22;6066;48.138;16.402;2022-07-18T04:34:58;15.40;99.90
12015;DHT22;6066;48.138;16.402;2022-07-18T04:37:24;15.50;99.90
12015;DHT22;6066;48.138;16.402;2022-07-18T04:39:51;15.50;99.90
12015;DHT22;6066;48.138;16.402;2022-07-18T04:42:18;15.60;99.90
12015;DHT22;6066;48.138;16.402;2022-07-18T04:44:44;15.70;99.90
12015;DHT22;6066;48.138;16.402;2022-07-18T04:47:13;15.80;99.90
12015;DHT22;6066;48.138;16.402;2022-07-18T04:49:39;15.90;99.90
12015;DHT22;6066;48.138;16.402;2022-07-18T04:52:06;16.00;99.90
12015;DHT22;6066;48.138;16.402;2022-07-18T04:54:33;16.00;99.90
12015;DHT22;6066;48.138;16.402;2022-07-18T04:56:59;16.10;99.90
12015;DHT22;6066;48.138;16.402;2022-07-18T04:59:26;16.20;99.90
12015;DHT22;6066;48.138;16.402;2022-07-18T05:01:53;16.30;99.90
12015;DHT22;6066;48.138;16.402;2022-07-18T05:04:21;16.30;99.90
12015;DHT22;6066;48.138;16.402;2022-07-18T05:06:48;16.40;99.90
12015;DHT22;6066;48.138;16.402;2022-07-18T05:09:15;16.40;99.90
12015;DHT22;6066;48.138;16.402;2022-07-18T05:11:41;16.50;99.90
12015;DHT22;6066;48.138;16.402;2022-07-18T05:14:08;16.60;99.90
12015;DHT22;6066;48.138;16.402;2022-07-18T05:16:35;16.60;99.90
12015;DHT22;6066;48.138;16.402;2022-07-18T05:19:02;16.70;99.90
12015;DHT22;6066;48.138;16.402;2022-07-18T05:21:30;16.80;99.90
12015;DHT22;6066;48.138;16.402;2022-07-18T05:23:57;16.80;99.90
12015;DHT22;6066;48.138;16.402;2022-07-18T05:26:24;16.90;99.90
12015;DHT22;6066;48.138;16.402;2022-07-18T05:28:50;17.00;99.90
12015;DHT22;6066;48.138;16.402;2022-07-18T05:31:17;17.10;99.90
12015;DHT22;6066;48.138;16.402;2022-07-18T05:33:44;17.10;99.90
12015;DHT22;6066;48.138;16.402;2022-07-18T05:36:10;17.20;99.90
12015;DHT22;6066;48.138;16.402;2022-07-18T05:38:38;17.30;99.90
12015;DHT22;6066;48.138;16.402;2022-07-18T05:41:05;17.40;99.90
12015;DHT22;6066;48.138;16.402;2022-07-18T05:43:32;17.50;99.90
12015;DHT22;6066;48.138;16.402;2022-07-18T05:45:59;17.60;99.90
12015;DHT22;6066;48.138;16.402;2022-07-18T05:48:26;17.70;99.90
12015;DHT22;6066;48.138;16.402;2022-07-18T05:50:52;17.70;99.90
12015;DHT22;6066;48.138;16.402;2022-07-18T05:53:19;17.90;99.90
12015;DHT22;6066;48.138;16.402;2022-07-18T05:55:47;17.90;99.90
12015;DHT22;6066;48.138;16.402;2022-07-18T05:58:14;18.00;99.90
12015;DHT22;6066;48.138;16.402;2022-07-18T06:00:41;18.00;99.90
12015;DHT22;6066;48.138;16.402;2022-07-18T06:03:07;18.10;99.90
12015;DHT22;6066;48.138;16.402;2022-07-18T06:05:34;18.20;99.90
12015;DHT22;6066;48.138;16.402;2022-07-18T06:08:01;18.30;99.90
12015;DHT22;6066;48.138;16.402;2022-07-18T06:10:28;18.30;99.90
12015;DHT22;6066;48.138;16.402;2022-07-18T06:12:56;18.40;99.90
12015;DHT22;6066;48.138;16.402;2022-07-18T06:15:22;18.40;99.90
12015;DHT22;6066;48.138;16.402;2022-07-18T06:17:49;18.50;99.90
12015;DHT22;6066;48.138;16.402;2022-07-18T06:20:16;18.50;99.90
12015;DHT22;6066;48.138;16.402;2022-07-18T06:22:43;18.60;99.90
12015;DHT22;6066;48.138;16.402;2022-07-18T06:25:10;18.70;99.90
12015;DHT22;6066;48.138;16.402;2022-07-18T06:27:36;18.80;99.90
12015;DHT22;6066;48.138;16.402;2022-07-18T06:30:05;18.90;99.90
12015;DHT22;6066;48.138;16.402;2022-07-18T06:32:33;18.90;99.90
12015;DHT22;6066;48.138;16.402;2022-07-18T06:35:00;18.90;99.90
12015;DHT22;6066;48.138;16.402;2022-07-18T06:37:27;18.90;99.90
12015;DHT22;6066;48.138;16.402;2022-07-18T06:39:53;18.90;99.90
12015;DHT22;6066;48.138;16.402;2022-07-18T06:42:20;19.00;99.90
12015;DHT22;6066;48.138;16.402;2022-07-18T06:44:47;19.10;99.90
12015;DHT22;6066;48.138;16.402;2022-07-18T06:47:15;19.10;99.90
12015;DHT22;6066;48.138;16.402;2022-07-18T06:49:41;19.20;99.90
12015;DHT22;6066;48.138;16.402;2022-07-18T06:52:08;19.30;99.80
12015;DHT22;6066;48.138;16.402;2022-07-18T06:54:37;19.40;98.70
12015;DHT22;6066;48.138;16.402;2022-07-18T06:57:05;19.50;99.70
12015;DHT22;6066;48.138;16.402;2022-07-18T06:59:33;19.60;99.90
12015;DHT22;6066;48.138;16.402;2022-07-18T07:01:59;19.80;99.90
12015;DHT22;6066;48.138;16.402;2022-07-18T07:04:27;19.90;99.90
12015;DHT22;6066;48.138;16.402;2022-07-18T07:06:54;20.00;99.90
12015;DHT22;6066;48.138;16.402;2022-07-18T07:09:21;20.10;98.70
12015;DHT22;6066;48.138;16.402;2022-07-18T07:11:48;20.20;98.60
12015;DHT22;6066;48.138;16.402;2022-07-18T07:14:14;20.40;98.60
12015;DHT22;6066;48.138;16.402;2022-07-18T07:16:41;20.60;99.30
12015;DHT22;6066;48.138;16.402;2022-07-18T07:19:08;20.60;98.10
12015;DHT22;6066;48.138;16.402;2022-07-18T07:21:36;20.70;96.90
12015;DHT22;6066;48.138;16.402;2022-07-18T07:24:03;20.80;96.50
12015;DHT22;6066;48.138;16.402;2022-07-18T07:26:30;20.90;96.20
12015;DHT22;6066;48.138;16.402;2022-07-18T07:28:57;21.00;96.90
12015;DHT22;6066;48.138;16.402;2022-07-18T07:31:24;21.00;96.40
12015;DHT22;6066;48.138;16.402;2022-07-18T07:33:51;21.20;96.70
12015;DHT22;6066;48.138;16.402;2022-07-18T07:36:18;21.30;96.10
12015;DHT22;6066;48.138;16.402;2022-07-18T07:38:46;21.40;95.10
12015;DHT22;6066;48.138;16.402;2022-07-18T07:41:12;21.60;95.10
12015;DHT22;6066;48.138;16.402;2022-07-18T07:43:39;21.70;94.50
12015;DHT22;6066;48.138;16.402;2022-07-18T07:46:06;21.80;94.70
12015;DHT22;6066;48.138;16.402;2022-07-18T07:48:33;21.90;93.60
12015;DHT22;6066;48.138;16.402;2022-07-18T07:50:59;22.00;94.60
12015;DHT22;6066;48.138;16.402;2022-07-18T07:53:28;22.20;94.90
12015;DHT22;6066;48.138;16.402;2022-07-18T07:55:57;22.30;94.00
12015;DHT22;6066;48.138;16.402;2022-07-18T07:58:23;22.40;93.50
12015;DHT22;6066;48.138;16.402;2022-07-18T08:00:52;22.50;93.80
12015;DHT22;6066;48.138;16.402;2022-07-18T08:03:19;22.50;93.80
12015;DHT22;6066;48.138;16.402;2022-07-18T08:05:48;22.60;93.60
12015;DHT22;6066;48.138;16.402;2022-07-18T08:08:14;22.70;92.60
12015;DHT22;6066;48.138;16.402;2022-07-18T08:10:42;22.90;92.50
12015;DHT22;6066;48.138;16.402;2022-07-18T08:13:10;23.00;93.50
12015;DHT22;6066;48.138;16.402;2022-07-18T08:15:39;23.10;92.90
12015;DHT22;6066;48.138;16.402;2022-07-18T08:18:06;23.30;92.30
12015;DHT22;6066;48.138;16.402;2022-07-18T08:20:32;23.40;90.90
12015;DHT22;6066;48.138;16.402;2022-07-18T08:23:00;23.50;90.70
12015;DHT22;6066;48.138;16.402;2022-07-18T08:25:27;23.60;91.30
12015;DHT22;6066;48.138;16.402;2022-07-18T08:27:55;23.70;92.00
12015;DHT22;6066;48.138;16.402;2022-07-18T08:30:23;23.90;91.20
12015;DHT22;6066;48.138;16.402;2022-07-18T08:32:50;24.10;92.10
12015;DHT22;6066;48.138;16.402;2022-07-18T08:35:16;24.10;90.20
12015;DHT22;6066;48.138;16.402;2022-07-18T08:37:43;24.20;90.50
12015;DHT22;6066;48.138;16.402;2022-07-18T08:40:10;24.30;90.80
12015;DHT22;6066;48.138;16.402;2022-07-18T08:42:37;24.30;90.30
12015;DHT22;6066;48.138;16.402;2022-07-18T08:45:04;24.40;90.90
12015;DHT22;6066;48.138;16.402;2022-07-18T08:47:33;24.40;91.30
12015;DHT22;6066;48.138;16.402;2022-07-18T08:49:59;24.60;90.30
12015;DHT22;6066;48.138;16.402;2022-07-18T08:52:27;24.50;90.30
12015;DHT22;6066;48.138;16.402;2022-07-18T08:54:54;24.50;89.90
12015;DHT22;6066;48.138;16.402;2022-07-18T08:57:21;24.60;90.90
12015;DHT22;6066;48.138;16.402;2022-07-18T08:59:48;24.60;90.50
12015;DHT22;6066;48.138;16.402;2022-07-18T09:02:14;24.80;89.00
12015;DHT22;6066;48.138;16.402;2022-07-18T09:04:43;24.60;86.60
12015;DHT22;6066;48.138;16.402;2022-07-18T09:07:22;24.60;90.40
12015;DHT22;6066;48.138;16.402;2022-07-18T09:09:51;24.70;90.30
12015;DHT22;6066;48.138;16.402;2022-07-18T09:12:18;24.80;88.40
12015;DHT22;6066;48.138;16.402;2022-07-18T09:14:46;25.00;87.50
12015;DHT22;6066;48.138;16.402;2022-07-18T09:17:13;25.10;87.60
12015;DHT22;6066;48.138;16.402;2022-07-18T09:19:41;25.30;87.40
12015;DHT22;6066;48.138;16.402;2022-07-18T09:22:13;25.50;88.10
12015;DHT22;6066;48.138;16.402;2022-07-18T09:24:57;25.70;88.50
12015;DHT22;6066;48.138;16.402;2022-07-18T09:27:24;25.90;83.70
12015;DHT22;6066;48.138;16.402;2022-07-18T09:30:07;26.00;85.30
12015;DHT22;6066;48.138;16.402;2022-07-18T09:32:34;26.10;84.20
12015;DHT22;6066;48.138;16.402;2022-07-18T09:35:04;26.00;85.60
12015;DHT22;6066;48.138;16.402;2022-07-18T09:37:32;25.90;84.90
12015;DHT22;6066;48.138;16.402;2022-07-18T09:40:13;25.90;83.00
12015;DHT22;6066;48.138;16.402;2022-07-18T09:42:40;26.00;81.70
12015;DHT22;6066;48.138;16.402;2022-07-18T09:45:07;26.20;81.50
12015;DHT22;6066;48.138;16.402;2022-07-18T09:47:36;26.40;85.10
12015;DHT22;6066;48.138;16.402;2022-07-18T09:50:18;26.50;79.40
12015;DHT22;6066;48.138;16.402;2022-07-18T09:52:49;26.80;79.90
12015;DHT22;6066;48.138;16.402;2022-07-18T09:55:21;27.00;81.70
12015;DHT22;6066;48.138;16.402;2022-07-18T09:57:58;27.10;83.30
12015;DHT22;6066;48.138;16.402;2022-07-18T10:00:27;27.30;84.20
12015;DHT22;6066;48.138;16.402;2022-07-18T10:02:54;27.50;83.30
12015;DHT22;6066;48.138;16.402;2022-07-18T10:05:21;27.80;79.10
12015;DHT22;6066;48.138;16.402;2022-07-18T10:07:49;28.20;75.60
12015;DHT22;6066;48.138;16.402;2022-07-18T10:10:16;28.20;76.60
12015;DHT22;6066;48.138;16.402;2022-07-18T10:12:43;28.20;77.50
12015;DHT22;6066;48.138;16.402;2022-07-18T10:15:10;28.00;78.70
12015;DHT22;6066;48.138;16.402;2022-07-18T10:17:37;28.20;79.80
12015;DHT22;6066;48.138;16.402;2022-07-18T10:20:04;28.40;78.90
12015;DHT22;6066;48.138;16.402;2022-07-18T10:22:34;28.20;77.80
12015;DHT22;6066;48.138;16.402;2022-07-18T10:25:04;28.10;77.50
12015;DHT22;6066;48.138;16.402;2022-07-18T10:27:47;28.10;77.90
12015;DHT22;6066;48.138;16.402;2022-07-18T10:30:14;28.10;74.50
12015;DHT22;6066;48.138;16.402;2022-07-18T10:32:41;28.20;77.70
12015;DHT22;6066;48.138;16.402;2022-07-18T10:35:09;28.10;72.50
12015;DHT22;6066;48.138;16.402;2022-07-18T10:37:37;28.00;75.40
12015;DHT22;6066;48.138;16.402;2022-07-18T10:40:25;28.40;72.70
12015;DHT22;6066;48.138;16.402;2022-07-18T10:45:42;29.20;69.30
12015;DHT22;6066;48.138;16.402;2022-07-18T10:50:59;29.10;68.30
12015;DHT22;6066;48.138;16.402;2022-07-18T10:53:36;29.10;70.60
12015;DHT22;6066;48.138;16.402;2022-07-18T10:57:03;28.90;67.20
12015;DHT22;6066;48.138;16.402;2022-07-18T10:59:15;28.70;68.30
12015;DHT22;6066;48.138;16.402;2022-07-18T11:01:46;28.70;71.70
12015;DHT22;6066;48.138;16.402;2022-07-18T11:04:25;29.10;70.90
12015;DHT22;6066;48.138;16.402;2022-07-18T11:06:52;29.30;68.50
12015;DHT22;6066;48.138;16.402;2022-07-18T11:09:29;29.10;68.40
12015;DHT22;6066;48.138;16.402;2022-07-18T11:20:24;29.60;67.90
12015;DHT22;6066;48.138;16.402;2022-07-18T11:22:51;29.90;68.20
12015;DHT22;6066;48.138;16.402;2022-07-18T11:25:19;30.00;65.70
12015;DHT22;6066;48.138;16.402;2022-07-18T11:27:46;29.90;65.50
12015;DHT22;6066;48.138;16.402;2022-07-18T11:30:15;30.00;66.80
12015;DHT22;6066;48.138;16.402;2022-07-18T11:32:42;30.20;66.20
12015;DHT22;6066;48.138;16.402;2022-07-18T11:35:09;30.40;63.50
12015;DHT22;6066;48.138;16.402;2022-07-18T11:37:38;30.10;64.70
12015;DHT22;6066;48.138;16.402;2022-07-18T11:40:05;30.00;66.30
12015;DHT22;6066;48.138;16.402;2022-07-18T11:42:35;29.90;65.40
12015;DHT22;6066;48.138;16.402;2022-07-18T11:45:03;29.60;65.40
12015;DHT22;6066;48.138;16.402;2022-07-18T11:47:30;29.60;66.40
12015;DHT22;6066;48.138;16.402;2022-07-18T11:49:57;29.70;66.30
12015;DHT22;6066;48.138;16.402;2022-07-18T11:52:24;29.80;64.20
12015;DHT22;6066;48.138;16.402;2022-07-18T11:54:52;29.70;62.90
12015;DHT22;6066;48.138;16.402;2022-07-18T11:57:25;29.40;66.00
12015;DHT22;6066;48.138;16.402;2022-07-18T11:59:54;29.10;63.90
12015;DHT22;6066;48.138;16.402;2022-07-18T12:05:09;29.30;65.50
12015;DHT22;6066;48.138;16.402;2022-07-18T12:07:35;29.80;62.40
12015;DHT22;6066;48.138;16.402;2022-07-18T12:10:15;30.10;64.70
12015;DHT22;6066;48.138;16.402;2022-07-18T12:12:42;30.30;61.00
12015;DHT22;6066;48.138;16.402;2022-07-18T12:15:09;30.40;60.70
12015;DHT22;6066;48.138;16.402;2022-07-18T12:17:42;30.30;64.80
12015;DHT22;6066;48.138;16.402;2022-07-18T12:20:10;30.20;62.30
12015;DHT22;6066;48.138;16.402;2022-07-18T12:25:33;30.20;63.90
12015;DHT22;6066;48.138;16.402;2022-07-18T12:28:11;30.50;65.40
12015;DHT22;6066;48.138;16.402;2022-07-18T12:30:37;30.80;65.00
12015;DHT22;6066;48.138;16.402;2022-07-18T12:33:06;31.10;62.10
12015;DHT22;6066;48.138;16.402;2022-07-18T12:35:34;31.30;60.70
12015;DHT22;6066;48.138;16.402;2022-07-18T12:38:02;31.10;60.00
12015;DHT22;6066;48.138;16.402;2022-07-18T12:40:39;30.80;60.30
12015;DHT22;6066;48.138;16.402;2022-07-18T12:43:07;30.30;61.90
12015;DHT22;6066;48.138;16.402;2022-07-18T12:45:34;29.70;58.70
12015;DHT22;6066;48.138;16.402;2022-07-18T12:48:01;29.50;63.20
12015;DHT22;6066;48.138;16.402;2022-07-18T12:50:28;29.80;64.90
12015;DHT22;6066;48.138;16.402;2022-07-18T12:52:56;29.80;61.50
12015;DHT22;6066;48.138;16.402;2022-07-18T12:55:23;29.80;63.10
12015;DHT22;6066;48.138;16.402;2022-07-18T12:57:51;29.90;65.20
12015;DHT22;6066;48.138;16.402;2022-07-18T13:00:17;30.00;61.90
12015;DHT22;6066;48.138;16.402;2022-07-18T13:02:46;30.00;62.10
12015;DHT22;6066;48.138;16.402;2022-07-18T13:05:13;30.20;62.60
12015;DHT22;6066;48.138;16.402;2022-07-18T13:07:39;30.40;64.20
12015;DHT22;6066;48.138;16.402;2022-07-18T13:10:07;30.60;63.50
12015;DHT22;6066;48.138;16.402;2022-07-18T13:12:33;31.00;63.30
12015;DHT22;6066;48.138;16.402;2022-07-18T13:15:02;31.30;64.70
12015;DHT22;6066;48.138;16.402;2022-07-18T13:17:28;31.50;59.00
12015;DHT22;6066;48.138;16.402;2022-07-18T13:19:55;31.60;64.70
12015;DHT22;6066;48.138;16.402;2022-07-18T13:22:22;31.60;59.60
12015;DHT22;6066;48.138;16.402;2022-07-18T13:24:48;31.60;57.40
12015;DHT22;6066;48.138;16.402;2022-07-18T13:27:15;31.40;60.60
12015;DHT22;6066;48.138;16.402;2022-07-18T13:29:44;31.60;60.70
12015;DHT22;6066;48.138;16.402;2022-07-18T13:32:12;31.60;60.00
12015;DHT22;6066;48.138;16.402;2022-07-18T13:34:39;31.30;58.00
12015;DHT22;6066;48.138;16.402;2022-07-18T13:37:06;31.00;59.60
12015;DHT22;6066;48.138;16.402;2022-07-18T13:39:32;30.90;59.20
12015;DHT22;6066;48.138;16.402;2022-07-18T13:41:59;30.50;58.00
12015;DHT22;6066;48.138;16.402;2022-07-18T13:44:28;30.60;61.20
12015;DHT22;6066;48.138;16.402;2022-07-18T13:46:54;30.90;66.20
12015;DHT22;6066;48.138;16.402;2022-07-18T13:49:22;30.90;62.80
12015;DHT22;6066;48.138;16.402;2022-07-18T13:51:49;30.90;63.20
12015;DHT22;6066;48.138;16.402;2022-07-18T13:54:16;30.80;60.80
12015;DHT22;6066;48.138;16.402;2022-07-18T13:56:43;30.70;64.30
12015;DHT22;6066;48.138;16.402;2022-07-18T13:59:10;30.60;59.10
12015;DHT22;6066;48.138;16.402;2022-07-18T14:01:37;30.40;60.00
12015;DHT22;6066;48.138;16.402;2022-07-18T14:04:04;30.50;59.60
12015;DHT22;6066;48.138;16.402;2022-07-18T14:06:32;30.80;61.80
12015;DHT22;6066;48.138;16.402;2022-07-18T14:09:00;30.90;59.90
12015;DHT22;6066;48.138;16.402;2022-07-18T14:11:27;31.10;61.50
12015;DHT22;6066;48.138;16.402;2022-07-18T14:13:53;31.20;61.70
12015;DHT22;6066;48.138;16.402;2022-07-18T14:16:20;31.10;59.10
12015;DHT22;6066;48.138;16.402;2022-07-18T14:18:47;30.90;61.90
12015;DHT22;6066;48.138;16.402;2022-07-18T14:21:13;30.80;59.80
12015;DHT22;6066;48.138;16.402;2022-07-18T14:23:42;30.80;60.90
12015;DHT22;6066;48.138;16.402;2022-07-18T14:26:08;30.90;62.80
12015;DHT22;6066;48.138;16.402;2022-07-18T14:28:35;30.80;57.90
12015;DHT22;6066;48.138;16.402;2022-07-18T14:31:02;30.60;57.80
12015;DHT22;6066;48.138;16.402;2022-07-18T14:33:28;30.60;60.60
12015;DHT22;6066;48.138;16.402;2022-07-18T14:35:55;30.60;57.80
12015;DHT22;6066;48.138;16.402;2022-07-18T14:38:22;30.60;59.90
12015;DHT22;6066;48.138;16.402;2022-07-18T14:40:50;30.50;59.90
12015;DHT22;6066;48.138;16.402;2022-07-18T14:43:17;30.40;60.00
12015;DHT22;6066;48.138;16.402;2022-07-18T14:45:43;30.40;59.10
12015;DHT22;6066;48.138;16.402;2022-07-18T14:48:10;30.20;60.40
12015;DHT22;6066;48.138;16.402;2022-07-18T14:50:37;30.20;60.70
12015;DHT22;6066;48.138;16.402;2022-07-18T14:53:03;30.00;57.70
12015;DHT22;6066;48.138;16.402;2022-07-18T14:55:30;29.90;59.50
12015;DHT22;6066;48.138;16.402;2022-07-18T14:57:58;29.90;60.10
12015;DHT22;6066;48.138;16.402;2022-07-18T15:00:25;29.70;56.30
12015;DHT22;6066;48.138;16.402;2022-07-18T15:02:52;29.60;58.40
12015;DHT22;6066;48.138;16.402;2022-07-18T15:05:18;29.60;56.60
12015;DHT22;6066;48.138;16.402;2022-07-18T15:07:45;29.60;59.70
12015;DHT22;6066;48.138;16.402;2022-07-18T15:10:12;29.60;59.20
12015;DHT22;6066;48.138;16.402;2022-07-18T15:12:39;29.80;57.40
12015;DHT22;6066;48.138;16.402;2022-07-18T15:15:08;30.00;58.00
12015;DHT22;6066;48.138;16.402;2022-07-18T15:17:34;30.10;61.90
12015;DHT22;6066;48.138;16.402;2022-07-18T15:20:01;30.10;59.50
12015;DHT22;6066;48.138;16.402;2022-07-18T15:22:28;30.20;56.50
12015;DHT22;6066;48.138;16.402;2022-07-18T15:24:55;30.20;59.90
12015;DHT22;6066;48.138;16.402;2022-07-18T15:27:21;30.10;56.50
12015;DHT22;6066;48.138;16.402;2022-07-18T15:29:48;30.10;59.00
12015;DHT22;6066;48.138;16.402;2022-07-18T15:32:16;30.20;59.90
12015;DHT22;6066;48.138;16.402;2022-07-18T15:34:43;30.40;60.50
12015;DHT22;6066;48.138;16.402;2022-07-18T15:37:10;30.50;57.70
12015;DHT22;6066;48.138;16.402;2022-07-18T15:39:36;30.60;61.00
12015;DHT22;6066;48.138;16.402;2022-07-18T15:42:03;30.50;59.70
12015;DHT22;6066;48.138;16.402;2022-07-18T15:44:30;30.30;59.80
12015;DHT22;6066;48.138;16.402;2022-07-18T15:47:02;30.20;60.60
12015;DHT22;6066;48.138;16.402;2022-07-18T15:49:30;30.10;59.80
12015;DHT22;6066;48.138;16.402;2022-07-18T15:51:57;30.10;62.10
12015;DHT22;6066;48.138;16.402;2022-07-18T15:54:24;30.00;60.40